sensor_id;sensor_type;location;lat;lon;timestamp;pressure;altitude;pressure_sealevel;temperature;humidity
9325;BME280;4701;51.566;6.776;2023-09-19T05:14:09;100684.94;;;15.79;80.17
9325;BME280;4701;51.566;6.776;2023-09-19T05:19:12;100689.34;;;15.80;80.08
9325;BME280;4701;51.566;6.776;2023-09-19T05:24:13;100690.34;;;15.84;79.80
9325;BME280;4701;51.566;6.776;2023-09-19T05:29:18;100690.03;;;15.86;79.88
9325;BME280;4701;51.566;6.776;2023-09-19T05:34:20;100705.66;;;15.91;79.44
9325;BME280;4701;51.566;6.776;2023-09-19T05:39:22;100709.69;;;15.93;79.20
9325;BME280;4701;51.566;6.776;2023-09-19T05:44:25;100716.53;;;15.96;79.23
9325;BME280;4701;51.566;6.776;2023-09-19T05:49:27;100715.94;;;15.99;78.93
9325;BME280;4701;51.566;6.776;2023-09-19T05:54:29;100716.72;;;15.99;78.90
9325;BME280;4701;51.566;6.776;2023-09-19T05:59:32;100710.94;;;16.01;79.00
9325;BME280;4701;51.566;6.776;2023-09-19T06:04:34;100704.84;;;16.04;79.07
9325;BME280;4701;51.566;6.776;2023-09-19T06:09:36;100702.59;;;16.06;78.85
9325;BME280;4701;51.566;6.776;2023-09-19T06:14:39;100710.22;;;16.09;78.69
9325;BME280;4701;51.566;6.776;2023-09-19T06:19:42;100696.69;;;16.12;78.13
9325;BME280;4701;51.566;6.776;2023-09-19T06:24:46;100709.63;;;16.12;78.39
9325;BME280;4701;51.566;6.776;2023-09-19T06:29:49;100693.03;;;16.17;77.60
9325;BME280;4701;51.566;6.776;2023-09-19T06:34:52;100697.69;;;16.16;77.60
9325;BME280;4701;51.566;6.776;2023-09-19T06:39:54;100710.66;;;16.16;78.25
9325;BME280;4701;51.566;6.776;2023-09-19T06:44:58;100711.16;;;16.18;77.90
9325;BME280;4701;51.566;6.776;2023-09-19T06:50:00;100723.50;;;16.20;78.04
9325;BME280;4701;51.566;6.776;2023-09-19T06:55:06;100724.81;;;16.23;77.91
9325;BME280;4701;51.566;6.776;2023-09-19T07:00:10;100739.06;;;16.25;78.06
9325;BME280;4701;51.566;6.776;2023-09-19T07:05:21;100715.63;;;16.27;77.95
9325;BME280;4701;51.566;6.776;2023-09-19T07:10:23;100726.88;;;16.31;77.99
9325;BME280;4701;51.566;6.776;2023-09-19T07:15:28;100739.50;;;16.32;78.24
9325;BME280;4701;51.566;6.776;2023-09-19T07:20:31;100747.13;;;16.35;78.31
9325;BME280;4701;51.566;6.776;2023-09-19T07:25:35;100746.63;;;16.33;78.76
9325;BME280;4701;51.566;6.776;2023-09-19T07:30:38;100740.81;;;16.35;78.87
9325;BME280;4701;51.566;6.776;2023-09-19T07:35:45;100746.00;;;16.36;78.97
9325;BME280;4701;51.566;6.776;2023-09-19T07:40:46;100749.78;;;16.40;79.06
9325;BME280;4701;51.566;6.776;2023-09-19T07:45:49;100746.72;;;16.42;78.89
9325;BME280;4701;51.566;6.776;2023-09-19T07:50:51;100765.38;;;16.45;79.28
9325;BME280;4701;51.566;6.776;2023-09-19T07:56:01;100765.59;;;16.48;79.08
9325;BME280;4701;51.566;6.776;2023-09-19T08:01:07;100775.97;;;16.51;79.01
9325;BME280;4701;51.566;6.776;2023-09-19T08:06:10;100772.91;;;16.53;79.24
9325;BME280;4701;51.566;6.776;2023-09-19T08:11:14;100771.78;;;16.54;79.18
9325;BME280;4701;51.566;6.776;2023-09-19T08:16:23;100776.69;;;16.57;79.24
9325;BME280;4701;51.566;6.776;2023-09-19T08:21:25;100770.56;;;16.60;79.29
9325;BME280;4701;51.566;6.776;2023-09-19T08:26:29;100771.63;;;16.64;79.30
9325;BME280;4701;51.566;6.776;2023-09-19T08:31:33;100778.47;;;16.67;79.18
9325;BME280;4701;51.566;6.776;2023-09-19T08:36:35;100786.59;;;16.72;79.17
9325;BME280;4701;51.566;6.776;2023-09-19T08:41:37;100790.69;;;16.74;78.84
9325;BME280;4701;51.566;6.776;2023-09-19T08:46:41;100795.25;;;16.79;78.83
9325;BME280;4701;51.566;6.776;2023-09-19T08:51:45;100786.69;;;16.80;79.07
9325;BME280;4701;51.566;6.776;2023-09-19T08:56:47;100788.50;;;16.85;79.14
9325;BME280;4701;51.566;6.776;2023-09-19T09:01:51;100779.34;;;16.89;79.01
9325;BME280;4701;51.566;6.776;2023-09-19T09:06:54;100788.59;;;16.93;78.61
9325;BME280;4701;51.566;6.776;2023-09-19T09:11:57;100789.63;;;16.97;78.46
9325;BME280;4701;51.566;6.776;2023-09-19T09:17:01;100787.88;;;17.01;77.48
9325;BME280;4701;51.566;6.776;2023-09-19T09:22:07;100776.78;;;17.07;77.02
9325;BME280;4701;51.566;6.776;2023-09-19T09:27:12;100785.22;;;17.10;76.62
9325;BME280;4701;51.566;6.776;2023-09-19T09:32:20;100779.09;;;17.13;76.80
9325;BME280;4701;51.566;6.776;2023-09-19T09:37:23;100783.69;;;17.18;76.30
9325;BME280;4701;51.566;6.776;2023-09-19T09:42:31;100780.31;;;17.21;76.51
9325;BME280;4701;51.566;6.776;2023-09-19T09:47:43;100772.75;;;17.26;76.06
9325;BME280;4701;51.566;6.776;2023-09-19T09:52:50;100773.16;;;17.33;75.14
9325;BME280;4701;51.566;6.776;2023-09-19T09:58:15;100779.66;;;17.37;75.31
9325;BME280;4701;51.566;6.776;2023-09-19T17:03:46;100647.28;;;18.52;69.17
9325;BME280;4701;51.566;6.776;2023-09-19T17:08:49;100644.06;;;18.59;69.40
9325;BME280;4701;51.566;6.776;2023-09-19T17:13:51;100649.28;;;18.69;68.71
9325;BME280;4701;51.566;6.776;2023-09-19T17:18:56;100657.59;;;18.78;68.32
9325;BME280;4701;51.566;6.776;2023-09-19T17:23:58;100646.88;;;18.85;67.69
9325;BME280;4701;51.566;6.776;2023-09-19T17:29:00;100665.38;;;18.93;67.27
9325;BME280;4701;51.566;6.776;2023-09-19T17:34:03;100662.44;;;18.98;66.88
9325;BME280;4701;51.566;6.776;2023-09-19T17:39:05;100663.75;;;19.01;67.27
9325;BME280;4701;51.566;6.776;2023-09-19T17:44:09;100658.06;;;19.06;67.14
9325;BME280;4701;51.566;6.776;2023-09-19T17:49:13;100657.28;;;19.05;67.33
9325;BME280;4701;51.566;6.776;2023-09-19T17:54:14;100654.34;;;19.10;66.62
9325;BME280;4701;51.566;6.776;2023-09-19T17:59:16;100657.09;;;19.10;66.58
9325;BME280;4701;51.566;6.776;2023-09-19T18:04:19;100650.94;;;19.13;66.54
9325;BME280;4701;51.566;6.776;2023-09-19T18:09:21;100669.94;;;19.15;66.60
9325;BME280;4701;51.566;6.776;2023-09-19T18:14:23;100670.75;;;19.15;66.42
9325;BME280;4701;51.566;6.776;2023-09-19T18:19:26;100673.03;;;19.13;66.54
9325;BME280;4701;51.566;6.776;2023-09-19T18:24:30;100669.09;;;19.14;66.83
9325;BME280;4701;51.566;6.776;2023-09-19T18:29:32;100682.91;;;19.14;66.58
9325;BME280;4701;51.566;6.776;2023-09-19T18:34:36;100667.84;;;19.12;66.80
9325;BME280;4701;51.566;6.776;2023-09-19T18:39:37;100664.41;;;19.15;66.36
9325;BME280;4701;51.566;6.776;2023-09-19T18:44:40;100663.94;;;19.13;66.84
9325;BME280;4701;51.566;6.776;2023-09-19T18:49:43;100670.91;;;19.10;67.05
9325;BME280;4701;51.566;6.776;2023-09-19T18:54:45;100667.34;;;19.10;67.37
